Time;durP1;ratioP1;P1;durP2;ratioP2;P2;SDS_P1;SDS_P2;PMS_P1;PMS_P2;Temp;Humidity;BMP_temperature;BMP_pressure;BME280_temperature;BME280_humidity;BME280_pressure;Samples;Min_cycle;Max_cycle;Signal;HPM_P1;HPM_P2
2021/12/02 00:00:45;;;;;;;18.40;17.40;;;;;;;-141.02;100.00;55844.97;5132904;28;20192;-72
2021/12/02 00:03:12;;;;;;;19.60;18.50;;;;;;;-141.02;100.00;55844.97;5133152;27;20196;-73
2021/12/02 00:05:39;;;;;;;20.23;19.13;;;;;;;-141.02;100.00;55844.97;5132873;28;20197;-72
2021/12/02 00:08:07;;;;;;;20.50;19.40;;;;;;;-141.02;100.00;55844.97;5133057;27;20196;-73
2021/12/02 00:10:35;;;;;;;19.57;18.57;;;;;;;-141.02;100.00;55844.97;5133093;27;20662;-73
2021/12/02 00:13:02;;;;;;;20.83;19.63;;;;;;;-141.02;100.00;55844.97;5133093;28;20201;-72
2021/12/02 00:15:36;;;;;;;20.47;19.37;;;;;;;-141.02;100.00;55844.97;5132748;27;20194;-73
2021/12/02 00:21:05;;;;;;;17.30;16.40;;;;;;;-141.02;100.00;55844.97;5132752;27;20296;-72
2021/12/02 00:23:36;;;;;;;18.60;17.60;;;;;;;-141.02;100.00;55844.97;5133524;27;20192;-73
2021/12/02 00:26:08;;;;;;;18.87;17.87;;;;;;;-141.02;100.00;55844.97;5132721;27;20218;-72
2021/12/02 00:28:38;;;;;;;19.10;18.10;;;;;;;-141.02;100.00;55844.97;5132914;27;20273;-72
2021/12/02 00:31:12;;;;;;;19.57;18.57;;;;;;;-141.02;100.00;55844.97;5132869;28;20192;-72
2021/12/02 00:33:44;;;;;;;19.30;18.30;;;;;;;-141.02;100.00;55844.97;5132567;28;20181;-72
2021/12/02 00:36:12;;;;;;;18.47;17.47;;;;;;;-141.02;100.00;55844.97;5132935;27;20249;-72
2021/12/02 00:38:41;;;;;;;19.00;18.00;;;;;;;-141.02;100.00;55844.97;5132589;27;20655;-72
2021/12/02 00:41:11;;;;;;;19.47;18.47;;;;;;;-141.02;100.00;55844.97;5132492;28;20189;-73
2021/12/02 00:43:39;;;;;;;19.33;18.33;;;;;;;-141.02;100.00;55844.97;5132509;28;20199;-72
2021/12/02 00:46:11;;;;;;;20.27;19.17;;;;;;;-141.02;100.00;55844.97;5132766;27;20618;-73
2021/12/02 00:48:39;;;;;;;20.53;19.43;;;;;;;-141.02;100.00;55844.97;5133253;28;20212;-72
2021/12/02 00:51:07;;;;;;;17.63;16.73;;;;;;;-141.02;100.00;55844.97;5132235;27;20224;-71
2021/12/02 00:53:37;;;;;;;17.20;16.30;;;;;;;-141.02;100.00;55844.97;5132374;28;20197;-74
2021/12/02 00:56:07;;;;;;;17.53;16.73;;;;;;;-141.02;100.00;55844.97;5132399;27;20599;-72
2021/12/02 00:58:34;;;;;;;18.43;17.63;;;;;;;-141.02;100.00;55844.97;5132594;28;20193;-72
2021/12/02 01:01:02;;;;;;;18.13;17.33;;;;;;;-141.02;100.00;55844.97;5132247;28;20204;-72
2021/12/02 01:03:34;;;;;;;17.67;16.87;;;;;;;-141.02;100.00;55844.97;5133173;27;20655;-71
2021/12/02 01:06:01;;;;;;;19.17;18.27;;;;;;;-141.02;100.00;55844.97;5136017;27;20197;-73
2021/12/02 01:08:29;;;;;;;18.97;18.07;;;;;;;-141.02;100.00;55844.97;5136086;27;20197;-71
2021/12/02 01:10:56;;;;;;;19.27;18.37;;;;;;;-141.02;100.00;55844.97;5135923;27;20197;-71
2021/12/02 01:13:23;;;;;;;18.10;17.30;;;;;;;-141.02;100.00;55844.97;5136104;27;20653;-72
2021/12/02 01:15:51;;;;;;;17.60;16.90;;;;;;;-141.02;100.00;55844.97;5136051;27;20192;-71
2021/12/02 01:18:18;;;;;;;17.87;17.17;;;;;;;-141.02;100.00;55844.97;5136063;27;20215;-73
2021/12/02 01:20:49;;;;;;;19.17;18.37;;;;;;;-141.02;100.00;55844.97;5136080;27;20200;-72
2021/12/02 01:23:18;;;;;;;17.70;17.00;;;;;;;-141.02;100.00;55844.97;5135989;27;20192;-71
2021/12/02 01:25:49;;;;;;;18.13;17.40;;;;;;;-141.02;100.00;55844.97;5135615;27;20193;-71
2021/12/02 01:28:19;;;;;;;17.60;16.90;;;;;;;-141.02;100.00;55844.97;5135852;27;20575;-71
2021/12/02 01:30:48;;;;;;;17.60;16.90;;;;;;;-141.02;100.00;55844.97;5135702;27;20224;-71
2021/12/02 01:33:16;;;;;;;18.70;17.90;;;;;;;-141.02;100.00;55844.97;5135469;27;20218;-71
2021/12/02 01:35:48;;;;;;;18.73;17.93;;;;;;;-141.02;100.00;55844.97;5135706;27;20193;-70
2021/12/02 01:38:16;;;;;;;17.47;16.77;;;;;;;-141.02;100.00;55844.97;5135703;27;20187;-71
2021/12/02 01:40:45;;;;;;;18.23;17.43;;;;;;;-141.02;100.00;55844.97;5135248;27;20197;-72
2021/12/02 01:43:18;;;;;;;19.33;18.53;;;;;;;-141.02;100.00;55844.97;5135242;27;20196;-71
2021/12/02 01:45:45;;;;;;;19.73;18.93;;;;;;;-141.02;100.00;55844.97;5135587;27;20189;-70
2021/12/02 01:48:20;;;;;;;19.07;18.27;;;;;;;-141.02;100.00;55844.97;5135541;27;20591;-70
2021/12/02 01:51:01;;;;;;;18.57;17.77;;;;;;;-141.02;100.00;55844.97;5134989;27;20241;-70
2021/12/02 01:53:32;;;;;;;19.10;18.20;;;;;;;-141.02;100.00;55844.97;5135433;27;20188;-70
2021/12/02 01:56:10;;;;;;;17.80;17.00;;;;;;;-141.02;100.00;55844.97;5135329;27;20185;-72
2021/12/02 01:58:43;;;;;;;19.27;18.37;;;;;;;-141.02;100.00;55844.97;5135342;27;20189;-71
2021/12/02 02:01:17;;;;;;;18.53;17.73;;;;;;;-141.02;100.00;55844.97;5135000;27;20196;-71
2021/12/02 02:03:45;;;;;;;17.57;16.77;;;;;;;-141.02;100.00;55844.97;5135848;27;20253;-71
2021/12/02 02:06:15;;;;;;;15.00;14.50;;;;;;;-141.02;100.00;55844.97;5134756;27;20284;-70
2021/12/02 02:08:49;;;;;;;15.60;15.00;;;;;;;-141.02;100.00;55844.97;5134655;27;20207;-70
2021/12/02 02:11:16;;;;;;;14.70;14.20;;;;;;;-141.02;100.00;55844.97;5135019;27;20191;-71
2021/12/02 02:13:44;;;;;;;18.07;17.37;;;;;;;-141.02;100.00;55844.97;5134977;27;20196;-71
2021/12/02 02:16:11;;;;;;;16.67;16.07;;;;;;;-141.02;100.00;55844.97;5134892;27;20224;-70
2021/12/02 02:18:40;;;;;;;18.20;17.50;;;;;;;-141.02;100.00;55844.97;5134482;27;20192;-72
2021/12/02 02:21:12;;;;;;;19.67;18.87;;;;;;;-141.02;100.00;55844.97;5134705;27;20211;-71
2021/12/02 02:23:45;;;;;;;17.37;16.67;;;;;;;-141.02;100.00;55844.97;5134495;27;20227;-70
2021/12/02 02:26:12;;;;;;;16.50;15.90;;;;;;;-141.02;100.00;55844.97;5134450;27;20196;-71
2021/12/02 02:28:40;;;;;;;16.67;15.97;;;;;;;-141.02;100.00;55844.97;5134314;27;20204;-71
2021/12/02 02:31:07;;;;;;;16.50;15.87;;;;;;;-141.02;100.00;55844.97;5134597;27;20224;-71
2021/12/02 02:33:37;;;;;;;16.00;15.40;;;;;;;-141.02;100.00;55844.97;5134131;27;20245;-71
2021/12/02 02:36:06;;;;;;;17.17;16.47;;;;;;;-141.02;100.00;55844.97;5134133;27;20204;-71
2021/12/02 02:38:35;;;;;;;18.37;17.60;;;;;;;-141.02;100.00;55844.97;5134145;27;20202;-71
2021/12/02 02:41:05;;;;;;;19.03;18.13;;;;;;;-141.02;100.00;55844.97;5133991;27;20618;-71
2021/12/02 02:43:33;;;;;;;18.30;17.50;;;;;;;-141.02;100.00;55844.97;5134422;27;20634;-72
2021/12/02 02:46:01;;;;;;;19.60;18.60;;;;;;;-141.02;100.00;55844.97;5134316;27;20215;-71
2021/12/02 02:48:29;;;;;;;21.23;20.13;;;;;;;-141.02;100.00;55844.97;5134280;27;20577;-71
2021/12/02 02:50:57;;;;;;;21.43;20.33;;;;;;;-141.02;100.00;55844.97;5133633;27;20317;-72
2021/12/02 02:53:26;;;;;;;21.37;20.27;;;;;;;-141.02;100.00;55844.97;5134155;27;20203;-71
2021/12/02 02:56:06;;;;;;;20.33;19.33;;;;;;;-141.02;100.00;55844.97;5133826;27;20207;-73
2021/12/02 02:58:45;;;;;;;18.70;17.90;;;;;;;-141.02;100.00;55844.97;5133845;27;20206;-72
2021/12/02 03:01:26;;;;;;;17.70;17.00;;;;;;;-141.02;100.00;55844.97;5134044;27;20192;-72
2021/12/02 03:04:02;;;;;;;17.90;17.10;;;;;;;-141.02;100.00;55844.97;5133732;27;20188;-72
2021/12/02 03:06:36;;;;;;;16.80;16.10;;;;;;;-141.02;100.00;55844.97;5133692;27;20622;-72
2021/12/02 03:09:07;;;;;;;16.40;15.70;;;;;;;-141.02;100.00;55844.97;5133862;27;20280;-72
2021/12/02 03:11:45;;;;;;;17.60;17.00;;;;;;;-141.02;100.00;55844.97;5133861;27;20189;-72
2021/12/02 03:14:16;;;;;;;18.13;17.53;;;;;;;-141.02;100.00;55844.97;5133596;27;20214;-72
2021/12/02 03:16:46;;;;;;;18.70;18.00;;;;;;;-141.02;100.00;55844.97;5133456;27;20202;-72
2021/12/02 03:19:15;;;;;;;14.90;14.50;;;;;;;-141.02;100.00;55844.97;5133714;27;20247;-71
2021/12/02 03:21:42;;;;;;;16.00;15.50;;;;;;;-141.02;100.00;55844.97;5133727;27;20192;-72
2021/12/02 03:24:09;;;;;;;16.70;16.20;;;;;;;-141.02;100.00;55844.97;5133711;27;20197;-72
2021/12/02 03:26:38;;;;;;;16.83;16.23;;;;;;;-141.02;100.00;55844.97;5133124;27;20196;-71
2021/12/02 03:29:06;;;;;;;14.67;14.27;;;;;;;-141.02;100.00;55844.97;5133166;27;20638;-72
2021/12/02 03:31:34;;;;;;;17.63;17.03;;;;;;;-141.02;100.00;55844.97;5133509;27;20615;-72
2021/12/02 03:34:03;;;;;;;19.67;18.97;;;;;;;-141.02;100.00;55844.97;5133527;27;20224;-72
2021/12/02 03:36:31;;;;;;;19.87;18.93;;;;;;;-141.02;100.00;55844.97;5133484;27;20250;-72
2021/12/02 03:38:58;;;;;;;21.17;20.07;;;;;;;-141.02;100.00;55844.97;5133473;27;20245;-72
2021/12/02 03:41:25;;;;;;;21.93;21.03;;;;;;;-141.02;100.00;55844.97;5133100;27;20232;-71
2021/12/02 03:43:54;;;;;;;21.13;20.13;;;;;;;-141.02;100.00;55844.97;5133066;27;20291;-71
2021/12/02 03:46:22;;;;;;;22.87;21.90;;;;;;;-141.02;100.00;55844.97;5133603;27;20253;-72
2021/12/02 03:48:51;;;;;;;26.57;25.17;;;;;;;-141.02;100.00;55844.97;5133157;27;20193;-71
2021/12/02 03:51:19;;;;;;;21.53;20.43;;;;;;;-141.02;100.00;55844.97;5133319;27;20220;-71
2021/12/02 03:53:47;;;;;;;20.60;19.80;;;;;;;-141.02;100.00;55844.97;5133330;27;20269;-71
2021/12/02 03:56:15;;;;;;;17.00;16.40;;;;;;;-141.02;100.00;55844.97;5132942;27;20292;-71
2021/12/02 03:58:44;;;;;;;20.20;19.30;;;;;;;-141.02;100.00;55844.97;5132945;27;20196;-71
2021/12/02 04:01:14;;;;;;;20.13;19.33;;;;;;;-141.02;100.00;55844.97;5133167;28;20242;-71
2021/12/02 04:03:42;;;;;;;20.00;19.10;;;;;;;-141.02;100.00;55844.97;5132938;27;20207;-71
2021/12/02 04:06:10;;;;;;;19.40;18.60;;;;;;;-141.02;100.00;55844.97;5133175;28;20235;-71
2021/12/02 04:08:43;;;;;;;20.10;19.30;;;;;;;-141.02;100.00;55844.97;5133120;28;20196;-71
2021/12/02 04:11:21;;;;;;;16.10;15.53;;;;;;;-141.02;100.00;55844.97;5132717;28;20708;-71
2021/12/02 04:13:57;;;;;;;15.83;15.13;;;;;;;-141.02;100.00;55844.97;5132844;27;20184;-71
2021/12/02 04:16:26;;;;;;;20.23;19.33;;;;;;;-141.02;100.00;55844.97;5132734;28;20279;-71
2021/12/02 04:18:53;;;;;;;20.00;19.10;;;;;;;-141.02;100.00;55844.97;5133019;28;20196;-71
2021/12/02 04:21:20;;;;;;;18.37;17.57;;;;;;;-141.02;100.00;55844.97;5132692;28;20552;-71
2021/12/02 04:23:48;;;;;;;18.30;17.50;;;;;;;-141.02;100.00;55844.97;5133543;27;20255;-71
2021/12/02 04:26:15;;;;;;;18.40;17.50;;;;;;;-141.02;100.00;55844.97;5132622;28;20196;-71
2021/12/02 04:28:42;;;;;;;18.10;17.10;;;;;;;-141.02;100.00;55844.97;5132942;27;20241;-71
2021/12/02 04:31:09;;;;;;;21.90;20.90;;;;;;;-141.02;100.00;55844.97;5132571;27;20272;-70
2021/12/02 04:33:38;;;;;;;22.97;21.87;;;;;;;-141.02;100.00;55844.97;5132929;28;20209;-70
2021/12/02 04:36:06;;;;;;;22.23;21.23;;;;;;;-141.02;100.00;55844.97;5132605;27;20654;-70
2021/12/02 04:38:34;;;;;;;18.97;17.87;;;;;;;-141.02;100.00;55844.97;5133532;27;20232;-71
2021/12/02 04:41:01;;;;;;;19.87;18.87;;;;;;;-141.02;100.00;55844.97;5136391;27;20234;-70
2021/12/02 04:43:28;;;;;;;17.83;16.83;;;;;;;-141.02;100.00;55844.97;5136752;27;20196;-71
2021/12/02 04:45:56;;;;;;;19.17;18.17;;;;;;;-141.02;100.00;55844.97;5136692;27;20558;-71
2021/12/02 04:48:23;;;;;;;18.50;17.50;;;;;;;-141.02;100.00;55844.97;5136377;27;20658;-70
2021/12/02 04:50:52;;;;;;;20.10;19.10;;;;;;;-141.02;100.00;55844.97;5136107;27;20231;-70
2021/12/02 04:53:20;;;;;;;20.73;19.73;;;;;;;-141.02;100.00;55844.97;5137062;27;20193;-70
2021/12/02 04:55:47;;;;;;;20.40;19.50;;;;;;;-141.02;100.00;55844.97;5136230;27;20203;-70
2021/12/02 04:58:14;;;;;;;21.40;20.20;;;;;;;-141.02;100.00;55844.97;5136458;27;20634;-71
2021/12/02 05:00:41;;;;;;;18.00;17.10;;;;;;;-141.02;100.00;55844.97;5136506;27;20617;-70
2021/12/02 05:03:08;;;;;;;16.83;16.13;;;;;;;-141.02;100.00;55844.97;5136013;27;20227;-71
2021/12/02 05:05:35;;;;;;;16.50;15.70;;;;;;;-141.02;100.00;55844.97;5136331;27;20257;-70
2021/12/02 05:08:04;;;;;;;17.90;17.10;;;;;;;-141.02;100.00;55844.97;5136283;27;20245;-71
2021/12/02 05:10:32;;;;;;;19.00;17.90;;;;;;;-141.02;100.00;55844.97;5135812;27;20270;-71
2021/12/02 05:12:59;;;;;;;18.17;17.17;;;;;;;-141.02;100.00;55844.97;5135848;27;20200;-71
2021/12/02 05:15:26;;;;;;;18.87;17.87;;;;;;;-141.02;100.00;55844.97;5136128;27;20192;-70
2021/12/02 05:17:53;;;;;;;18.07;17.17;;;;;;;-141.02;100.00;55844.97;5136112;27;20241;-70
2021/12/02 05:20:20;;;;;;;17.30;16.37;;;;;;;-141.02;100.00;55844.97;5136029;27;20618;-70
2021/12/02 05:22:47;;;;;;;18.83;17.83;;;;;;;-141.02;100.00;55844.97;5135693;27;20188;-70
2021/12/02 05:25:16;;;;;;;18.83;17.83;;;;;;;-141.02;100.00;55844.97;5135673;27;20197;-71
2021/12/02 05:27:43;;;;;;;18.90;17.80;;;;;;;-141.02;100.00;55844.97;5135898;27;20249;-70
2021/12/02 05:30:11;;;;;;;23.13;21.93;;;;;;;-141.02;100.00;55844.97;5135789;27;20296;-70
2021/12/02 05:32:39;;;;;;;18.50;17.70;;;;;;;-141.02;100.00;55844.97;5135699;27;20196;-71
2021/12/02 05:35:07;;;;;;;19.23;18.33;;;;;;;-141.02;100.00;55844.97;5135413;27;20284;-70
2021/12/02 05:37:35;;;;;;;19.73;18.63;;;;;;;-141.02;100.00;55844.97;5135711;27;20205;-70
2021/12/02 05:40:02;;;;;;;18.30;17.50;;;;;;;-141.02;100.00;55844.97;5135442;27;20192;-70
2021/12/02 05:42:30;;;;;;;18.30;17.50;;;;;;;-141.02;100.00;55844.97;5135655;27;20192;-70
2021/12/02 05:44:57;;;;;;;19.20;18.30;;;;;;;-141.02;100.00;55844.97;5135522;27;20188;-70
2021/12/02 05:47:24;;;;;;;18.77;17.90;;;;;;;-141.02;100.00;55844.97;5135193;27;20283;-71
2021/12/02 05:49:51;;;;;;;18.50;17.70;;;;;;;-141.02;100.00;55844.97;5134326;27;20718;-71
2021/12/02 05:52:18;;;;;;;18.90;18.00;;;;;;;-141.02;100.00;55844.97;5135139;27;20246;-71
2021/12/02 05:54:45;;;;;;;18.90;18.00;;;;;;;-141.02;100.00;55844.97;5135084;27;20196;-71
2021/12/02 05:57:12;;;;;;;18.80;17.90;;;;;;;-141.02;100.00;55844.97;5135297;27;20192;-71
2021/12/02 05:59:41;;;;;;;20.03;19.13;;;;;;;-141.02;100.00;55844.97;5134945;27;20192;-70
2021/12/02 06:02:08;;;;;;;18.70;17.80;;;;;;;-141.02;100.00;55844.97;5135203;27;20196;-70
2021/12/02 06:04:37;;;;;;;18.37;17.47;;;;;;;-141.02;100.00;55844.97;5135099;27;20224;-71
2021/12/02 06:07:05;;;;;;;19.10;18.20;;;;;;;-141.02;100.00;55844.97;5135619;27;20291;-71
2021/12/02 06:09:32;;;;;;;20.00;19.00;;;;;;;-141.02;100.00;55844.97;5134773;27;20188;-70
2021/12/02 06:11:59;;;;;;;20.83;19.50;;;;;;;-141.02;100.00;55844.97;5134944;27;20231;-71
2021/12/02 06:14:26;;;;;;;20.90;19.90;;;;;;;-141.02;100.00;55844.97;5134594;27;20257;-70
2021/12/02 06:16:54;;;;;;;20.40;19.40;;;;;;;-141.02;100.00;55844.97;5135758;27;20193;-70
2021/12/02 06:19:21;;;;;;;20.70;19.60;;;;;;;-141.02;100.00;55844.97;5134804;27;20221;-72
2021/12/02 06:21:50;;;;;;;20.07;19.07;;;;;;;-141.02;100.00;55844.97;5134517;27;20197;-70
2021/12/02 06:24:18;;;;;;;19.30;18.40;;;;;;;-141.02;100.00;55844.97;5134649;27;20200;-69
2021/12/02 06:26:45;;;;;;;19.77;18.87;;;;;;;-141.02;100.00;55844.97;5134704;27;20193;-70
2021/12/02 06:29:12;;;;;;;20.47;19.47;;;;;;;-141.02;100.00;55844.97;5134404;27;20192;-70
2021/12/02 06:31:39;;;;;;;20.30;19.30;;;;;;;-141.02;100.00;55844.97;5134219;27;20224;-70
2021/12/02 06:34:08;;;;;;;20.13;19.13;;;;;;;-141.02;100.00;55844.97;5134582;27;20188;-72
2021/12/02 06:36:36;;;;;;;18.33;17.43;;;;;;;-141.02;100.00;55844.97;5134453;27;20219;-69
2021/12/02 06:39:04;;;;;;;19.90;18.90;;;;;;;-141.02;100.00;55844.97;5134525;27;20219;-69
2021/12/02 06:41:31;;;;;;;19.90;18.90;;;;;;;-141.02;100.00;55844.97;5134434;27;20196;-70
2021/12/02 06:43:58;;;;;;;19.17;18.17;;;;;;;-141.02;100.00;55844.97;5134068;27;20189;-71
2021/12/02 06:46:25;;;;;;;20.27;19.27;;;;;;;-141.02;100.00;55844.97;5134345;27;20200;-70
2021/12/02 06:48:52;;;;;;;20.00;19.00;;;;;;;-141.02;100.00;55844.97;5134054;27;20196;-70
2021/12/02 06:51:21;;;;;;;20.10;19.10;;;;;;;-141.02;100.00;55844.97;5134260;27;20216;-70
2021/12/02 06:53:49;;;;;;;20.90;19.90;;;;;;;-141.02;100.00;55844.97;5134005;27;20192;-70
2021/12/02 06:56:17;;;;;;;25.37;22.73;;;;;;;-141.02;100.00;55844.97;5134093;27;20192;-69
2021/12/02 06:58:44;;;;;;;21.50;20.40;;;;;;;-141.02;100.00;55844.97;5134091;27;20196;-69
2021/12/02 07:01:11;;;;;;;23.10;21.70;;;;;;;-141.02;100.00;55844.97;5133798;27;20200;-72
2021/12/02 07:03:38;;;;;;;20.20;19.20;;;;;;;-141.02;100.00;55844.97;5134598;27;20193;-71
2021/12/02 07:06:05;;;;;;;21.10;20.00;;;;;;;-141.02;100.00;55844.97;5133977;27;20207;-71
2021/12/02 07:08:33;;;;;;;21.60;20.50;;;;;;;-141.02;100.00;55844.97;5133934;27;20192;-70
2021/12/02 07:11:04;;;;;;;20.20;19.20;;;;;;;-141.02;100.00;55844.97;5133485;27;20614;-70
2021/12/02 07:13:32;;;;;;;22.50;21.30;;;;;;;-141.02;100.00;55844.97;5134129;27;20185;-70
2021/12/02 07:16:00;;;;;;;21.43;20.33;;;;;;;-141.02;100.00;55844.97;5133820;27;20551;-70
2021/12/02 07:18:27;;;;;;;21.07;19.97;;;;;;;-141.02;100.00;55844.97;5133730;27;20188;-70
2021/12/02 07:20:54;;;;;;;22.40;21.30;;;;;;;-141.02;100.00;55844.97;5133802;27;20197;-70
2021/12/02 07:23:23;;;;;;;21.87;20.77;;;;;;;-141.02;100.00;55844.97;5133371;27;20232;-69
2021/12/02 07:25:51;;;;;;;22.53;21.33;;;;;;;-141.02;100.00;55844.97;5133642;27;20196;-69
2021/12/02 07:28:19;;;;;;;22.00;20.90;;;;;;;-141.02;100.00;55844.97;5133330;27;20245;-69
2021/12/02 07:30:53;;;;;;;21.80;20.70;;;;;;;-141.02;100.00;55844.97;5133140;27;20231;-69
2021/12/02 07:33:21;;;;;;;22.30;21.20;;;;;;;-141.02;100.00;55844.97;5133562;27;20215;-70
2021/12/02 07:35:48;;;;;;;24.67;23.37;;;;;;;-141.02;100.00;55844.97;5133186;27;20677;-70
2021/12/02 07:38:16;;;;;;;23.27;22.07;;;;;;;-141.02;100.00;55844.97;5133510;27;20257;-70
2021/12/02 07:40:43;;;;;;;22.80;21.70;;;;;;;-141.02;100.00;55844.97;5133416;27;20690;-71
2021/12/02 07:43:12;;;;;;;23.83;22.63;;;;;;;-141.02;100.00;55844.97;5133448;27;20196;-70
2021/12/02 07:45:39;;;;;;;20.83;19.80;;;;;;;-141.02;100.00;55844.97;5133470;27;20192;-70
2021/12/02 07:48:09;;;;;;;21.70;20.60;;;;;;;-141.02;100.00;55844.97;5133019;27;20551;-71
2021/12/02 07:50:37;;;;;;;28.63;25.30;;;;;;;-141.02;100.00;55844.97;5132825;27;20296;-69
2021/12/02 07:53:06;;;;;;;23.10;21.90;;;;;;;-141.02;100.00;55844.97;5132974;27;20283;-70
2021/12/02 07:55:38;;;;;;;23.00;21.80;;;;;;;-141.02;100.00;55844.97;5133239;28;20740;-70
2021/12/02 07:58:06;;;;;;;22.00;20.80;;;;;;;-141.02;100.00;55844.97;5133411;28;20205;-69
2021/12/02 08:00:35;;;;;;;23.03;21.70;;;;;;;-141.02;100.00;55844.97;5132957;28;20232;-69
2021/12/02 08:03:07;;;;;;;22.80;21.57;;;;;;;-141.02;100.00;55844.97;5133203;27;20193;-70
2021/12/02 08:05:34;;;;;;;23.50;22.30;;;;;;;-141.02;100.00;55844.97;5133233;28;20216;-69
2021/12/02 08:08:01;;;;;;;24.60;23.30;;;;;;;-141.02;100.00;55844.97;5133130;28;20224;-70
2021/12/02 08:10:29;;;;;;;23.53;22.23;;;;;;;-141.02;100.00;55844.97;5133115;28;20280;-69
2021/12/02 08:12:58;;;;;;;25.20;23.80;;;;;;;-141.02;100.00;55844.97;5134788;27;20228;-70
2021/12/02 08:15:28;;;;;;;26.83;24.90;;;;;;;-141.02;100.00;55844.97;5136983;27;20725;-70
2021/12/02 08:17:57;;;;;;;23.20;21.90;;;;;;;-141.02;100.00;55844.97;5136981;27;20236;-69
2021/12/02 08:20:27;;;;;;;21.23;20.13;;;;;;;-141.02;100.00;55844.97;5136911;27;20192;-69
2021/12/02 08:22:54;;;;;;;28.67;26.77;;;;;;;-141.02;100.00;55844.97;5137168;27;20200;-71
2021/12/02 08:25:23;;;;;;;27.37;25.53;;;;;;;-141.02;100.00;55844.97;5137132;27;20223;-70
2021/12/02 08:27:51;;;;;;;24.03;22.77;;;;;;;-141.02;100.00;55844.97;5137146;27;20200;-69
2021/12/02 08:30:21;;;;;;;23.83;22.53;;;;;;;-141.02;100.00;55844.97;5136831;27;20636;-69
2021/12/02 08:32:48;;;;;;;25.00;23.50;;;;;;;-141.02;100.00;55844.97;5136574;27;20216;-69
2021/12/02 08:35:18;;;;;;;37.70;33.93;;;;;;;-141.02;100.00;55844.97;5136983;27;20195;-69
2021/12/02 08:37:48;;;;;;;24.47;23.17;;;;;;;-141.02;100.00;55844.97;5136555;27;20193;-69
2021/12/02 08:40:18;;;;;;;24.10;22.80;;;;;;;-141.02;100.00;55844.97;5136859;27;20223;-70
2021/12/02 08:42:45;;;;;;;27.20;24.77;;;;;;;-141.02;100.00;55844.97;5136888;27;20185;-69
2021/12/02 08:45:13;;;;;;;23.33;22.03;;;;;;;-141.02;100.00;55844.97;5136778;27;20252;-69
2021/12/02 08:47:44;;;;;;;26.67;25.27;;;;;;;-141.02;100.00;55844.97;5136698;27;20193;-69
2021/12/02 08:50:12;;;;;;;24.17;22.70;;;;;;;-141.02;100.00;55844.97;5136237;27;20228;-69
2021/12/02 08:52:41;;;;;;;25.37;23.87;;;;;;;-141.02;100.00;55844.97;5136558;27;20256;-69
2021/12/02 08:55:09;;;;;;;24.93;23.63;;;;;;;-141.02;100.00;55844.97;5136571;27;20227;-70
2021/12/02 08:57:37;;;;;;;23.57;22.27;;;;;;;-141.02;100.00;55844.97;5136549;27;20252;-70
2021/12/02 09:00:07;;;;;;;22.27;21.07;;;;;;;-141.02;100.00;55844.97;5136144;27;20196;-69
2021/12/02 09:02:35;;;;;;;23.57;22.17;;;;;;;-141.02;100.00;55844.97;5137252;27;20207;-70
2021/12/02 09:05:03;;;;;;;24.00;21.83;;;;;;;-141.02;100.00;55844.97;5136007;27;20650;-70
2021/12/02 09:07:31;;;;;;;27.73;25.30;;;;;;;-141.02;100.00;55844.97;5136038;27;20288;-70
2021/12/02 09:09:59;;;;;;;26.73;24.87;;;;;;;-141.02;100.00;55844.97;5136287;27;20196;-70
2021/12/02 09:12:27;;;;;;;25.93;24.20;;;;;;;-141.02;100.00;55844.97;5136106;27;20227;-71
2021/12/02 09:14:54;;;;;;;26.47;24.97;;;;;;;-141.02;100.00;55844.97;5136207;27;20196;-70
2021/12/02 09:17:21;;;;;;;23.33;22.03;;;;;;;-141.02;100.00;55844.97;5135779;27;20196;-71
2021/12/02 09:19:48;;;;;;;24.57;23.17;;;;;;;-141.02;100.00;55844.97;5135807;27;20196;-71
2021/12/02 09:22:16;;;;;;;24.67;23.27;;;;;;;-141.02;100.00;55844.97;5135681;27;20283;-72
2021/12/02 09:24:43;;;;;;;25.50;24.00;;;;;;;-141.02;100.00;55844.97;5135990;27;20204;-71
2021/12/02 09:27:12;;;;;;;28.80;24.47;;;;;;;-141.02;100.00;55844.97;5135734;27;20254;-72
2021/12/02 09:29:39;;;;;;;26.10;24.60;;;;;;;-141.02;100.00;55844.97;5135664;27;20723;-71
2021/12/02 09:32:06;;;;;;;25.93;24.43;;;;;;;-141.02;100.00;55844.97;5135776;27;20281;-73
2021/12/02 09:34:33;;;;;;;22.70;21.40;;;;;;;-141.02;100.00;55844.97;5135486;27;20731;-72
2021/12/02 09:37:01;;;;;;;25.57;24.17;;;;;;;-141.02;100.00;55844.97;5135421;27;20279;-72
2021/12/02 09:39:30;;;;;;;26.70;24.43;;;;;;;-141.02;100.00;55844.97;5136195;27;20564;-72
2021/12/02 09:41:57;;;;;;;26.10;24.60;;;;;;;-141.02;100.00;55844.97;5135600;27;20200;-72
2021/12/02 09:44:26;;;;;;;27.30;25.80;;;;;;;-141.02;100.00;55844.97;5135577;27;20279;-72
2021/12/02 09:46:54;;;;;;;26.07;24.67;;;;;;;-141.02;100.00;55844.97;5135551;27;20200;-71
2021/12/02 09:49:21;;;;;;;26.30;24.90;;;;;;;-141.02;100.00;55844.97;5135053;27;20737;-72
2021/12/02 09:51:59;;;;;;;37.30;35.23;;;;;;;-141.02;100.00;55844.97;5135029;27;20227;-72
2021/12/02 09:54:30;;;;;;;23.33;22.03;;;;;;;-141.02;100.00;55844.97;5135176;27;20188;-73
2021/12/02 09:57:00;;;;;;;23.03;21.73;;;;;;;-141.02;100.00;55844.97;5135342;27;20199;-72
2021/12/02 09:59:34;;;;;;;23.80;22.50;;;;;;;-141.02;100.00;55844.97;5135193;27;20188;-73
2021/12/02 10:02:04;;;;;;;24.87;23.47;;;;;;;-141.02;100.00;55844.97;5135302;27;20189;-73
2021/12/02 10:04:35;;;;;;;24.83;23.43;;;;;;;-141.02;100.00;55844.97;5135783;27;20188;-73
2021/12/02 10:07:12;;;;;;;24.47;23.13;;;;;;;-141.02;100.00;55844.97;5134802;27;20279;-73
2021/12/02 10:09:42;;;;;;;23.37;22.07;;;;;;;-141.02;100.00;55844.97;5134815;27;20565;-77
2021/12/02 10:12:17;;;;;;;24.50;23.17;;;;;;;-141.02;100.00;55844.97;5134998;27;20220;-73
2021/12/02 10:14:52;;;;;;;26.67;25.20;;;;;;;-141.02;100.00;55844.97;5135092;27;20188;-73
2021/12/02 10:17:24;;;;;;;24.37;23.07;;;;;;;-141.02;100.00;55844.97;5134646;27;20650;-73
2021/12/02 10:20:19;;;;;;;24.80;23.40;;;;;;;-141.02;100.00;55844.97;5134638;27;20192;-74
2021/12/02 10:23:09;;;;;;;25.67;24.27;;;;;;;-141.02;100.00;55844.97;5134915;27;20556;-75
2021/12/02 10:25:37;;;;;;;24.50;23.10;;;;;;;-141.02;100.00;55844.97;5134466;27;20195;-75
2021/12/02 10:28:06;;;;;;;27.50;26.00;;;;;;;-141.02;100.00;55844.97;5134638;27;20208;-75
2021/12/02 10:30:36;;;;;;;26.80;25.30;;;;;;;-141.02;100.00;55844.97;5134679;27;20197;-76
2021/12/02 10:33:03;;;;;;;26.30;24.70;;;;;;;-141.02;100.00;55844.97;5134642;27;20713;-75
2021/12/02 10:35:50;;;;;;;27.00;25.27;;;;;;;-141.02;100.00;55844.97;5134271;27;20285;-75
2021/12/02 10:38:37;;;;;;;25.63;24.23;;;;;;;-141.02;100.00;55844.97;5127807;27;20200;-76
2021/12/02 10:41:08;;;;;;;27.03;25.50;;;;;;;-141.02;100.00;55844.97;5134549;27;20718;-76
2021/12/02 10:43:35;;;;;;;26.50;25.00;;;;;;;-141.02;100.00;55844.97;5134513;27;20188;-75
2021/12/02 10:46:18;;;;;;;24.80;23.40;;;;;;;-141.02;100.00;55844.97;5134133;27;20188;-76
2021/12/02 10:48:48;;;;;;;27.33;25.83;;;;;;;-141.02;100.00;55844.97;5134049;27;20710;-76
2021/12/02 10:51:37;;;;;;;27.90;25.97;;;;;;;-141.02;100.00;55844.97;5093409;28;20198;-75
2021/12/02 10:54:08;;;;;;;25.37;23.77;;;;;;;-141.02;100.00;55844.97;5093418;28;20281;-76
2021/12/02 10:56:37;;;;;;;24.77;23.37;;;;;;;-141.02;100.00;55844.97;5093080;28;20186;-76
2021/12/02 10:59:33;;;;;;;27.23;25.73;;;;;;;-141.02;100.00;55844.97;5093202;28;20229;-75
2021/12/02 11:02:06;;;;;;;27.03;25.53;;;;;;;-141.02;100.00;55844.97;5093685;28;20194;-76
2021/12/02 11:04:41;;;;;;;27.20;25.57;;;;;;;-141.02;100.00;55844.97;5093169;28;20186;-77
2021/12/02 11:07:13;;;;;;;26.20;24.50;;;;;;;-141.02;100.00;55844.97;5092797;28;20197;-76